KAJO

Details ICAO KAJO
Name Corona Muni
Region United States
Timezone America/Los_Angeles (UTC-7.0)
Plans Departing 14
Arriving 7
Stats Elevation 533 ft / 162 m (AMSL)
Location 33.897658° -117.602428°
Runways 1
Magnetic Variation 11.794° E
Sunrise 2018-05-25 12:44:35 UTC / 2018-05-25 05:44:35 Local
Sunset 2018-05-26 02:53:03 UTC / 2018-05-25 19:53:03 Local
Advertisement - Login to hide

Runways

ID Width Length Bearing (true) Bearing (mag) Surface Threshold Offset Overrun Length
07 59 ft / 18 m 3,187 ft / 972 m 89.10° 77.31° Asphalt 194 ft / 59 m 0 ft / 0 m
25 59 ft / 18 m 3,187 ft / 972 m 269.10° 257.31° Asphalt 197 ft / 60 m 0 ft / 0 m

Map

Weather


0- 5 10 15 20 25 30 35+ Temperature / ° C

Clouds and Precipitation
Forecast for 2018-05-25 06:00 UTC. Updated 3 hours ago

Ground ~20,000 ft ~40,000 ft Winds

METAR

KAJO 250756Z AUTO 26007KT 10SM OVC023 15/12 A3009 RMK AO2 SLP198 T01500117 402170139 $

TAF

Not found

Frequencies

Recorded 132.17 MHz ASOS
Approach 135.40 MHz SOCAL APP/DEP
Unicom 122.70 MHz CTAF/UNICOM
Warning: Do not use this data for real-world aviation or navigation. No guarantee of current accuracy is given.